Time;durP1;ratioP1;P1;durP2;ratioP2;P2;SDS_P1;SDS_P2;PMS_P1;PMS_P2;Temp;Humidity;BMP_temperature;BMP_pressure;BME280_temperature;BME280_humidity;BME280_pressure;Samples;Min_cycle;Max_cycle;Signal;HPM_P1;HPM_P2
2021/06/02 00:00:31;;;;;;;0.80;0.80;;;23.10;39.70;;;;;;5023638;28;20083;-61
2021/06/02 00:03:00;;;;;;;1.35;0.80;;;23.10;39.70;;;;;;5028385;28;20029;-60
2021/06/02 00:05:27;;;;;;;0.65;0.65;;;23.10;39.60;;;;;;5023774;28;20525;-59
2021/06/02 00:07:54;;;;;;;1.00;0.80;;;23.10;39.70;;;;;;5025357;28;20463;-60
2021/06/02 00:10:21;;;;;;;0.75;0.75;;;23.10;39.70;;;;;;5029614;28;20037;-60
2021/06/02 00:12:47;;;;;;;0.88;0.88;;;23.10;39.50;;;;;;5024689;28;20022;-61
2021/06/02 00:15:14;;;;;;;0.57;0.57;;;23.20;39.60;;;;;;5025025;28;20502;-60
2021/06/02 00:17:41;;;;;;;0.80;0.80;;;23.10;39.60;;;;;;5023505;28;20866;-61
2021/06/02 00:20:09;;;;;;;1.60;0.88;;;23.20;39.70;;;;;;5024896;28;20071;-60
2021/06/02 00:22:34;;;;;;;1.08;0.95;;;23.10;39.60;;;;;;5022085;28;20439;-60
2021/06/02 00:25:00;;;;;;;1.00;0.82;;;23.10;39.70;;;;;;5024903;28;20126;-60
2021/06/02 00:27:28;;;;;;;0.90;0.90;;;23.10;39.60;;;;;;5029095;28;20041;-60
2021/06/02 00:29:54;;;;;;;0.70;0.70;;;23.10;39.70;;;;;;5028689;28;20033;-60
2021/06/02 00:32:21;;;;;;;0.90;0.80;;;23.10;39.70;;;;;;5029563;28;20522;-60
2021/06/02 00:34:50;;;;;;;1.95;0.60;;;23.10;39.70;;;;;;5030642;28;20029;-61
2021/06/02 00:37:16;;;;;;;1.25;0.73;;;23.10;39.70;;;;;;5031597;28;20045;-59
2021/06/02 00:39:48;;;;;;;1.23;0.80;;;23.10;39.70;;;;;;5029468;28;20025;-60
2021/06/02 00:42:14;;;;;;;0.88;0.77;;;23.10;39.80;;;;;;5032367;28;20112;-60
2021/06/02 00:44:40;;;;;;;0.98;0.80;;;23.10;39.80;;;;;;5029850;28;20025;-59
2021/06/02 00:47:06;;;;;;;1.13;0.75;;;23.10;39.80;;;;;;5027536;28;20392;-59
2021/06/02 00:49:33;;;;;;;1.15;0.80;;;23.10;39.80;;;;;;5029539;28;20042;-60
2021/06/02 00:52:04;;;;;;;3.58;1.20;;;23.10;39.80;;;;;;5029922;28;20028;-60
2021/06/02 00:54:33;;;;;;;1.05;1.00;;;23.10;39.80;;;;;;5030368;28;20036;-60
2021/06/02 00:57:02;;;;;;;0.98;0.75;;;23.10;39.80;;;;;;5027568;28;20036;-60
2021/06/02 00:59:33;;;;;;;0.85;0.70;;;23.10;39.70;;;;;;5027712;28;20047;-61
2021/06/02 01:02:00;;;;;;;1.30;0.80;;;23.10;39.80;;;;;;5029483;28;20148;-60
2021/06/02 01:04:27;;;;;;;0.70;0.70;;;23.10;39.70;;;;;;5028118;28;20121;-60
2021/06/02 01:06:54;;;;;;;2.05;0.80;;;23.10;39.70;;;;;;5037674;28;20041;-60
2021/06/02 01:09:24;;;;;;;0.80;0.80;;;23.10;39.70;;;;;;5026511;28;20060;-60
2021/06/02 01:11:52;;;;;;;1.27;0.88;;;23.10;39.70;;;;;;5026954;28;20017;-60
2021/06/02 01:14:21;;;;;;;3.78;1.15;;;23.10;39.70;;;;;;5032116;28;20141;-60
2021/06/02 01:16:47;;;;;;;1.65;0.73;;;23.10;39.70;;;;;;5031619;28;20395;-61
2021/06/02 01:19:18;;;;;;;0.82;0.82;;;23.10;39.70;;;;;;5026747;28;20036;-61
2021/06/02 01:22:00;;;;;;;0.55;0.55;;;23.10;39.70;;;;;;5031477;28;20071;-61
2021/06/02 01:24:31;;;;;;;1.55;0.70;;;23.10;39.80;;;;;;5030246;28;20538;-61
2021/06/02 01:27:00;;;;;;;1.00;1.00;;;23.10;39.80;;;;;;5029005;28;20045;-62
2021/06/02 01:29:27;;;;;;;1.23;1.00;;;23.10;39.80;;;;;;5029785;28;20045;-62
2021/06/02 01:32:22;;;;;;;0.90;0.90;;;23.10;39.80;;;;;;5029163;28;20391;-62
2021/06/02 01:35:26;;;;;;;0.98;0.70;;;23.10;39.70;;;;;;5030442;28;20021;-62
2021/06/02 01:38:15;;;;;;;1.25;0.88;;;23.10;39.80;;;;;;5027092;28;20083;-62
2021/06/02 01:40:59;;;;;;;1.27;0.80;;;23.10;39.80;;;;;;5019122;28;20164;-62
2021/06/02 01:44:07;;;;;;;1.33;0.70;;;23.10;40.00;;;;;;5026302;28;20373;-63
2021/06/02 01:47:04;;;;;;;1.30;0.70;;;23.10;39.90;;;;;;5030882;28;20112;-61
2021/06/02 01:49:35;;;;;;;0.70;0.70;;;23.10;39.90;;;;;;5036872;28;20038;-61
2021/06/02 01:52:38;;;;;;;0.85;0.85;;;23.10;40.00;;;;;;5031391;28;20021;-62
2021/06/02 01:55:26;;;;;;;1.75;0.70;;;23.10;40.00;;;;;;5029669;28;20027;-61
2021/06/02 01:58:23;;;;;;;1.08;0.95;;;23.10;40.10;;;;;;5027811;28;20522;-62
2021/06/02 02:01:08;;;;;;;0.85;0.85;;;23.10;40.10;;;;;;5028502;28;20044;-62
2021/06/02 02:03:39;;;;;;;0.80;0.80;;;23.10;40.10;;;;;;5026139;28;20067;-61
2021/06/02 02:06:32;;;;;;;0.75;0.75;;;23.10;40.10;;;;;;5024835;28;20616;-61
2021/06/02 02:09:29;;;;;;;1.05;0.70;;;23.10;40.10;;;;;;5027637;28;20026;-61
2021/06/02 02:12:40;;;;;;;1.08;0.88;;;23.10;40.10;;;;;;5025050;28;20377;-63
2021/06/02 02:15:44;;;;;;;0.73;0.73;;;23.10;40.00;;;;;;4997581;28;20048;-61
2021/06/02 02:18:18;;;;;;;0.70;0.70;;;23.10;40.00;;;;;;5029464;28;20462;-61
2021/06/02 02:20:50;;;;;;;;;;;23.10;40.10;;;;;;5036825;28;20025;-60
2021/06/02 02:23:41;;;;;;;0.88;0.77;;;23.10;40.00;;;;;;5030791;28;19923;-61
2021/06/02 02:26:23;;;;;;;0.70;0.70;;;23.10;40.00;;;;;;5029438;28;20108;-61
2021/06/02 02:29:23;;;;;;;0.70;0.70;;;23.10;40.00;;;;;;5029294;28;20037;-60
2021/06/02 02:32:22;;;;;;;0.90;0.70;;;23.10;40.00;;;;;;5026117;28;20045;-60
2021/06/02 02:34:53;;;;;;;0.80;0.80;;;23.10;40.10;;;;;;5027751;28;20033;-61
2021/06/02 02:37:42;;;;;;;3.20;0.75;;;23.10;40.10;;;;;;5029326;28;20017;-62
2021/06/02 02:40:22;;;;;;;0.80;0.80;;;23.10;40.10;;;;;;5027935;28;20048;-62
2021/06/02 02:43:11;;;;;;;0.60;0.60;;;23.10;40.00;;;;;;5026997;28;20022;-61
2021/06/02 02:45:55;;;;;;;0.77;0.77;;;23.10;40.00;;;;;;5024575;28;20547;-61
2021/06/02 02:49:06;;;;;;;1.05;0.70;;;23.10;40.00;;;;;;5029655;28;20036;-61
2021/06/02 02:52:17;;;;;;;1.90;0.80;;;23.00;40.00;;;;;;5032887;28;20247;-60
2021/06/02 02:54:54;;;;;;;1.65;0.80;;;23.10;40.10;;;;;;4966980;28;20035;-60
2021/06/02 02:57:43;;;;;;;1.13;0.82;;;23.10;40.00;;;;;;4968609;28;20100;-60
2021/06/02 03:00:13;;;;;;;1.23;0.77;;;23.10;40.00;;;;;;5008526;28;20040;-60
2021/06/02 03:02:59;;;;;;;0.82;0.80;;;23.10;40.00;;;;;;5026858;28;20029;-60
2021/06/02 03:05:30;;;;;;;0.80;0.80;;;23.10;40.00;;;;;;5024640;28;20504;-59
2021/06/02 03:08:17;;;;;;;0.95;0.82;;;23.10;40.10;;;;;;5024054;28;20126;-60
2021/06/02 03:10:54;;;;;;;1.98;0.70;;;23.10;40.10;;;;;;5027927;28;20091;-60
2021/06/02 03:13:51;;;;;;;2.13;0.90;;;23.10;40.10;;;;;;5025989;28;20021;-61
2021/06/02 03:16:29;;;;;;;0.70;0.68;;;23.10;40.10;;;;;;5023843;28;20041;-61
2021/06/02 03:19:04;;;;;;;0.80;0.80;;;23.00;40.00;;;;;;5024492;28;20040;-61
2021/06/02 03:21:55;;;;;;;;;;;23.10;40.10;;;;;;5025365;28;20436;-60
2021/06/02 03:24:30;;;;;;;1.67;1.08;;;23.10;40.10;;;;;;5028420;28;19917;-60
2021/06/02 03:27:32;;;;;;;0.90;0.80;;;23.10;40.10;;;;;;5027234;28;20505;-60
2021/06/02 03:30:00;;;;;;;0.80;0.80;;;23.10;40.10;;;;;;5027280;28;20623;-60
2021/06/02 03:32:40;;;;;;;0.80;0.80;;;23.00;40.10;;;;;;5024868;28;20061;-61
2021/06/02 03:35:16;;;;;;;0.75;0.70;;;23.00;40.10;;;;;;5024074;28;20554;-61
2021/06/02 03:38:12;;;;;;;0.80;0.80;;;23.00;40.20;;;;;;5042090;28;20037;-61
2021/06/02 03:41:00;;;;;;;0.90;0.90;;;23.00;40.20;;;;;;5025734;28;20028;-60
2021/06/02 03:43:34;;;;;;;0.73;0.73;;;23.00;40.10;;;;;;5023915;28;20058;-60
2021/06/02 03:46:19;;;;;;;0.93;0.85;;;23.10;40.20;;;;;;5025460;28;20503;-60
2021/06/02 03:48:49;;;;;;;0.82;0.82;;;23.00;40.10;;;;;;5024835;28;20794;-61
2021/06/02 03:51:44;;;;;;;0.98;0.82;;;23.00;40.20;;;;;;5025823;28;20508;-61
2021/06/02 03:54:36;;;;;;;0.70;0.70;;;23.10;40.20;;;;;;5024692;28;20030;-62
2021/06/02 03:57:21;;;;;;;1.00;0.70;;;23.00;40.20;;;;;;5029728;28;20033;-62
2021/06/02 03:59:59;;;;;;;0.65;0.65;;;23.00;40.20;;;;;;5030593;28;20107;-61
2021/06/02 04:02:55;;;;;;;0.60;0.60;;;23.10;40.30;;;;;;5028817;28;20032;-61
2021/06/02 04:05:40;;;;;;;1.88;1.00;;;23.10;40.90;;;;;;5028956;28;20064;-61
2021/06/02 04:08:17;;;;;;;0.88;0.73;;;23.10;40.30;;;;;;5032177;28;20418;-61
2021/06/02 04:10:57;;;;;;;0.80;0.75;;;23.00;40.30;;;;;;5032175;28;20533;-61
2021/06/02 04:13:56;;;;;;;2.15;1.17;;;23.00;40.30;;;;;;5030311;28;20116;-62
2021/06/02 04:16:28;;;;;;;0.80;0.80;;;23.00;40.30;;;;;;5028233;28;20032;-61
2021/06/02 04:18:55;;;;;;;1.25;1.10;;;23.00;40.30;;;;;;5028822;28;20033;-62
2021/06/02 04:21:23;;;;;;;2.63;1.10;;;23.10;40.20;;;;;;5028744;28;20432;-62
2021/06/02 04:23:51;;;;;;;2.75;0.75;;;23.10;40.20;;;;;;5029243;28;20033;-62
2021/06/02 04:26:18;;;;;;;2.03;1.17;;;23.10;40.20;;;;;;5032607;28;20396;-60
2021/06/02 04:28:45;;;;;;;0.80;0.70;;;23.10;40.20;;;;;;5032215;28;20017;-59
2021/06/02 04:31:13;;;;;;;1.17;1.00;;;23.10;40.30;;;;;;5033837;28;20044;-59
2021/06/02 04:33:40;;;;;;;2.72;0.80;;;23.10;40.40;;;;;;5032967;28;20025;-61
2021/06/02 04:36:09;;;;;;;8.45;0.80;;;23.10;40.40;;;;;;5032304;28;20036;-59
2021/06/02 04:38:34;;;;;;;0.90;0.90;;;23.10;40.40;;;;;;5033302;28;20121;-58
2021/06/02 04:41:06;;;;;;;0.88;0.88;;;23.10;40.50;;;;;;5037428;28;20685;-60
2021/06/02 04:43:35;;;;;;;0.60;0.60;;;23.10;40.50;;;;;;5037538;28;20537;-60
2021/06/02 04:46:03;;;;;;;0.90;0.82;;;23.10;40.60;;;;;;5036544;28;20035;-60
2021/06/02 04:48:29;;;;;;;2.78;0.90;;;23.10;40.60;;;;;;5030688;28;20079;-61
2021/06/02 04:51:40;;;;;;;4.75;1.83;;;23.10;40.70;;;;;;5035924;28;20172;-61
2021/06/02 04:54:57;;;;;;;0.77;0.70;;;23.10;40.60;;;;;;5000136;28;20054;-60
2021/06/02 04:58:01;;;;;;;0.98;0.88;;;23.20;40.60;;;;;;5030948;28;20065;-61
2021/06/02 05:00:45;;;;;;;4.40;1.00;;;23.10;40.60;;;;;;5026904;28;20184;-58
2021/06/02 05:03:32;;;;;;;0.60;0.60;;;23.10;40.70;;;;;;5031990;28;20075;-61
2021/06/02 05:06:16;;;;;;;0.50;0.50;;;23.10;40.70;;;;;;5027598;28;20446;-60
2021/06/02 05:08:58;;;;;;;0.70;0.60;;;23.10;40.70;;;;;;5029476;28;20159;-61
2021/06/02 05:11:46;;;;;;;5.97;1.10;;;23.10;40.70;;;;;;5024940;28;20141;-61
2021/06/02 05:14:39;;;;;;;4.40;1.27;;;23.10;40.80;;;;;;5028650;28;20029;-60
2021/06/02 05:17:23;;;;;;;1.20;0.52;;;23.10;40.80;;;;;;5024781;28;20053;-60
2021/06/02 05:20:03;;;;;;;0.88;0.60;;;23.10;40.80;;;;;;5032334;28;20021;-59
2021/06/02 05:22:53;;;;;;;4.03;1.38;;;23.10;40.80;;;;;;5029077;28;20110;-59
2021/06/02 05:25:56;;;;;;;6.22;0.88;;;23.20;40.80;;;;;;5033776;28;20033;-60
2021/06/02 05:28:46;;;;;;;1.00;0.52;;;23.20;40.90;;;;;;5031094;28;20040;-63
2021/06/02 05:31:42;;;;;;;1.48;0.70;;;23.20;41.00;;;;;;5024689;28;20600;-60
2021/06/02 05:34:46;;;;;;;1.15;0.73;;;23.20;41.00;;;;;;5035933;28;20491;-57
2021/06/02 05:37:30;;;;;;;4.85;0.82;;;23.20;41.00;;;;;;5032955;28;20399;-59
2021/06/02 05:40:32;;;;;;;7.93;1.55;;;23.20;40.90;;;;;;5028225;28;20058;-58
2021/06/02 05:43:32;;;;;;;6.75;1.20;;;23.10;40.50;;;;;;5036355;28;20033;-57
2021/06/02 05:46:10;;;;;;;4.57;0.82;;;22.90;40.90;;;;;;5035178;28;20674;-59
2021/06/02 05:48:42;;;;;;;2.88;0.90;;;22.90;40.90;;;;;;5034232;28;20033;-59
2021/06/02 05:51:50;;;;;;;1.60;0.80;;;23.00;41.00;;;;;;5035954;28;20041;-58
2021/06/02 05:54:55;;;;;;;2.38;0.75;;;23.00;40.90;;;;;;5033808;28;20372;-58
2021/06/02 05:57:33;;;;;;;4.93;1.00;;;23.00;40.80;;;;;;5035416;28;20457;-59
2021/06/02 06:00:04;;;;;;;1.75;1.13;;;23.10;40.90;;;;;;5036363;28;20112;-59
2021/06/02 06:02:52;;;;;;;0.60;0.60;;;23.10;40.80;;;;;;5033502;28;20037;-58
2021/06/02 06:05:28;;;;;;;0.90;0.90;;;23.10;40.80;;;;;;5033027;28;20033;-59
2021/06/02 06:08:12;;;;;;;1.75;1.08;;;23.10;40.70;;;;;;5031193;28;20644;-58
2021/06/02 06:11:31;;;;;;;1.25;0.70;;;23.10;40.70;;;;;;5034200;28;20430;-59
2021/06/02 06:14:02;;;;;;;1.20;0.60;;;23.10;40.70;;;;;;5033903;28;20516;-58
2021/06/02 06:16:43;;;;;;;0.95;0.70;;;23.10;40.80;;;;;;5029481;28;20138;-60
2021/06/02 06:19:18;;;;;;;0.95;0.60;;;23.10;40.70;;;;;;5031145;28;20115;-59
2021/06/02 06:22:02;;;;;;;;;;;23.10;40.70;;;;;;5028826;28;20036;-60
2021/06/02 06:24:40;;;;;;;1.17;0.80;;;23.10;40.90;;;;;;5028061;28;20394;-59
2021/06/02 06:27:13;;;;;;;5.18;1.35;;;23.10;41.80;;;;;;5032347;28;20443;-66
2021/06/02 06:30:04;;;;;;;4.13;1.60;;;22.40;41.20;;;;;;5026565;28;20095;-60
2021/06/02 06:32:32;;;;;;;4.15;1.40;;;21.40;42.90;;;;;;5030979;28;20030;-60
2021/06/02 06:35:01;;;;;;;6.43;1.77;;;20.90;44.10;;;;;;5025927;28;20026;-60
2021/06/02 06:37:33;;;;;;;4.38;1.52;;;20.70;44.50;;;;;;5027979;28;20063;-60
2021/06/02 06:40:10;;;;;;;4.47;1.58;;;20.50;45.10;;;;;;5033995;28;20021;-60
2021/06/02 06:42:51;;;;;;;7.13;2.13;;;20.40;45.60;;;;;;5032349;28;20056;-60
2021/06/02 06:45:39;;;;;;;6.63;2.20;;;20.40;45.80;;;;;;5036184;28;20033;-58
2021/06/02 06:48:12;;;;;;;8.70;3.13;;;20.50;45.80;;;;;;5033491;28;20283;-57
2021/06/02 06:50:39;;;;;;;4.50;1.75;;;20.40;46.00;;;;;;5033167;28;20824;-60
2021/06/02 06:53:07;;;;;;;3.28;1.70;;;20.30;45.90;;;;;;5031370;28;20029;-62
2021/06/02 06:55:34;;;;;;;2.70;1.83;;;20.20;46.20;;;;;;5032220;28;20391;-58
2021/06/02 06:58:00;;;;;;;3.05;1.50;;;20.30;46.20;;;;;;5033807;28;20025;-62
2021/06/02 07:00:27;;;;;;;15.55;1.73;;;20.50;46.30;;;;;;5033658;28;20033;-57
2021/06/02 07:02:53;;;;;;;7.43;1.88;;;20.30;45.90;;;;;;5030242;28;20068;-57
2021/06/02 07:05:22;;;;;;;5.55;1.67;;;20.30;46.60;;;;;;5034403;28;20107;-55
2021/06/02 07:07:48;;;;;;;3.70;1.83;;;20.30;46.70;;;;;;5033124;28;20268;-57
2021/06/02 07:10:15;;;;;;;6.15;1.75;;;20.30;46.70;;;;;;5032545;28;20057;-55
2021/06/02 07:12:46;;;;;;;3.40;1.40;;;20.30;47.10;;;;;;5032919;28;20311;-57
2021/06/02 07:15:15;;;;;;;3.63;1.60;;;20.20;47.20;;;;;;5034923;28;20084;-59
2021/06/02 07:17:44;;;;;;;3.45;1.80;;;20.30;47.40;;;;;;5031504;28;20045;-60
2021/06/02 07:20:13;;;;;;;4.10;1.95;;;20.30;47.00;;;;;;5030974;28;20095;-59
2021/06/02 07:22:44;;;;;;;2.95;1.55;;;20.20;47.50;;;;;;5030099;28;20017;-59
2021/06/02 07:25:12;;;;;;;2.15;1.35;;;20.20;47.30;;;;;;5032310;28;20035;-61
2021/06/02 07:27:38;;;;;;;2.42;1.60;;;20.30;47.20;;;;;;5033554;28;20539;-60
2021/06/02 07:30:05;;;;;;;1.55;1.40;;;20.30;47.10;;;;;;5029269;28;20041;-59
2021/06/02 07:32:31;;;;;;;2.22;1.60;;;20.50;47.30;;;;;;5030870;28;20139;-60
2021/06/02 07:34:57;;;;;;;2.55;1.35;;;20.50;47.60;;;;;;5032797;28;20033;-60
2021/06/02 07:37:22;;;;;;;2.55;1.35;;;20.60;46.90;;;;;;5033128;28;20486;-60
2021/06/02 07:39:49;;;;;;;2.55;1.20;;;20.50;46.80;;;;;;5027197;28;20480;-60
2021/06/02 07:42:15;;;;;;;2.40;1.75;;;20.50;46.90;;;;;;5032887;28;20072;-60
2021/06/02 07:44:41;;;;;;;6.35;1.90;;;20.50;46.60;;;;;;5032156;28;20104;-60
2021/06/02 07:47:06;;;;;;;2.42;1.50;;;20.50;47.00;;;;;;5032565;28;20486;-59
2021/06/02 07:49:34;;;;;;;3.50;1.40;;;20.60;46.90;;;;;;5032866;28;20217;-58
2021/06/02 07:52:00;;;;;;;4.15;1.30;;;20.60;46.70;;;;;;5027143;28;20470;-59
2021/06/02 07:54:27;;;;;;;2.50;1.50;;;20.60;46.80;;;;;;5027089;28;20055;-59
2021/06/02 07:56:53;;;;;;;4.53;1.40;;;20.50;46.40;;;;;;5028492;28;20493;-59
2021/06/02 07:59:19;;;;;;;2.85;1.38;;;20.70;46.10;;;;;;5027647;28;20360;-61
2021/06/02 08:01:46;;;;;;;4.72;1.60;;;20.80;46.30;;;;;;5026544;28;20811;-58
2021/06/02 08:04:12;;;;;;;3.50;1.40;;;21.00;45.80;;;;;;5007044;28;20028;-61
2021/06/02 08:06:38;;;;;;;4.20;1.40;;;21.30;45.50;;;;;;5026464;28;20056;-60
2021/06/02 08:09:06;;;;;;;1.35;0.98;;;21.60;45.00;;;;;;5027694;28;20117;-60
2021/06/02 08:11:32;;;;;;;2.15;1.10;;;21.70;44.90;;;;;;5028297;28;20067;-60
2021/06/02 08:13:58;;;;;;;9.93;1.88;;;21.90;46.00;;;;;;5027085;28;20495;-58
2021/06/02 08:16:23;;;;;;;24.60;6.40;;;22.00;46.00;;;;;;5040140;28;20041;-59
2021/06/02 08:18:51;;;;;;;27.60;6.22;;;22.20;45.70;;;;;;5022581;28;20397;-58
2021/06/02 08:21:16;;;;;;;24.13;6.25;;;22.20;44.90;;;;;;5029000;28;20025;-58
2021/06/02 08:23:42;;;;;;;18.70;4.65;;;22.20;44.70;;;;;;5026030;28;20474;-58
2021/06/02 08:26:09;;;;;;;36.42;6.32;;;22.30;44.80;;;;;;5029729;28;20475;-59
2021/06/02 08:28:35;;;;;;;17.40;4.03;;;22.30;45.00;;;;;;5032420;28;20399;-59
2021/06/02 08:31:02;;;;;;;16.10;3.55;;;22.40;45.10;;;;;;5032677;28;20128;-58
2021/06/02 08:33:27;;;;;;;10.05;3.17;;;22.40;44.80;;;;;;5037210;28;20037;-58
2021/06/02 08:35:53;;;;;;;25.45;4.65;;;22.40;44.70;;;;;;5031844;28;20025;-60
2021/06/02 08:38:19;;;;;;;10.07;1.95;;;22.40;44.80;;;;;;5032521;28;20060;-59
2021/06/02 08:40:45;;;;;;;15.57;2.60;;;22.50;44.60;;;;;;5031925;28;20116;-62
2021/06/02 08:43:12;;;;;;;12.90;3.50;;;22.50;44.40;;;;;;5033506;28;20033;-58
2021/06/02 08:45:38;;;;;;;14.57;2.60;;;22.50;44.40;;;;;;5032015;28;20425;-56
2021/06/02 08:48:05;;;;;;;8.85;3.35;;;22.60;44.50;;;;;;5036599;28;20479;-58
2021/06/02 08:50:32;;;;;;;6.88;1.60;;;22.60;44.40;;;;;;5031768;28;20095;-59
2021/06/02 08:53:00;;;;;;;8.07;2.00;;;22.70;44.50;;;;;;5025395;28;20589;-58
2021/06/02 08:55:27;;;;;;;8.80;2.60;;;22.70;44.20;;;;;;5026668;28;20033;-59
2021/06/02 08:57:53;;;;;;;6.63;1.67;;;22.70;44.10;;;;;;5031081;28;20072;-58
2021/06/02 09:00:21;;;;;;;6.43;2.58;;;22.70;44.30;;;;;;5027741;28;20036;-60
2021/06/02 09:02:54;;;;;;;8.45;1.75;;;22.70;44.20;;;;;;5025286;28;20440;-57
2021/06/02 09:05:21;;;;;;;4.65;1.60;;;22.80;44.20;;;;;;5030291;28;21031;-59
2021/06/02 09:07:50;;;;;;;9.43;1.80;;;22.80;44.90;;;;;;5029178;28;20057;-61
2021/06/02 09:10:18;;;;;;;2.78;1.67;;;22.80;44.60;;;;;;5030860;28;20518;-61
2021/06/02 09:12:44;;;;;;;7.45;2.10;;;22.90;44.80;;;;;;5034791;28;20030;-60
2021/06/02 09:15:16;;;;;;;9.57;1.80;;;22.90;44.80;;;;;;5028421;28;20035;-62
2021/06/02 09:17:56;;;;;;;9.68;1.75;;;22.90;45.90;;;;;;5035687;28;20029;-60
2021/06/02 09:20:44;;;;;;;9.20;1.90;;;22.90;45.80;;;;;;5030626;28;20029;-62
2021/06/02 09:23:43;;;;;;;7.32;1.63;;;23.00;46.00;;;;;;5026275;28;20021;-62
2021/06/02 09:26:20;;;;;;;4.45;2.55;;;23.00;45.90;;;;;;5036670;28;20041;-59
2021/06/02 09:28:52;;;;;;;3.63;1.52;;;22.50;42.40;;;;;;5033040;28;20029;-59
2021/06/02 09:31:27;;;;;;;5.88;1.70;;;22.20;43.00;;;;;;5034734;28;20052;-57
2021/06/02 09:34:13;;;;;;;9.13;1.95;;;22.30;43.30;;;;;;5030315;28;20029;-57
2021/06/02 09:36:40;;;;;;;6.07;1.70;;;22.40;42.50;;;;;;5029981;28;20068;-57
2021/06/02 09:39:09;;;;;;;2.25;1.65;;;22.50;42.40;;;;;;5031820;28;20096;-57
2021/06/02 09:41:44;;;;;;;4.25;1.70;;;22.40;42.20;;;;;;5039170;28;20415;-58
2021/06/02 09:44:22;;;;;;;2.97;1.67;;;22.40;42.10;;;;;;5034592;28;20040;-58
2021/06/02 09:47:07;;;;;;;2.35;1.58;;;22.40;41.80;;;;;;5050210;28;20029;-60
2021/06/02 09:49:54;;;;;;;2.53;1.40;;;22.50;41.90;;;;;;5033892;28;20065;-59
2021/06/02 09:52:48;;;;;;;3.78;1.30;;;22.50;42.00;;;;;;5034574;28;20033;-58
2021/06/02 09:55:27;;;;;;;2.20;1.33;;;22.60;42.20;;;;;;5035000;28;20040;-59
2021/06/02 09:58:05;;;;;;;4.97;1.40;;;22.60;42.20;;;;;;5035478;28;20082;-60
2021/06/02 10:00:43;;;;;;;2.47;1.52;;;22.70;42.20;;;;;;5031639;28;20043;-56
2021/06/02 10:03:12;;;;;;;3.63;1.70;;;22.70;42.20;;;;;;5028376;28;20112;-56
2021/06/02 10:05:40;;;;;;;6.88;1.50;;;22.70;42.10;;;;;;5032512;28;20053;-58
2021/06/02 10:08:08;;;;;;;5.25;1.45;;;22.70;42.30;;;;;;5032533;28;20438;-57
2021/06/02 10:10:34;;;;;;;2.72;1.30;;;22.80;42.40;;;;;;5035383;28;20041;-57
2021/06/02 10:13:04;;;;;;;3.30;1.23;;;22.80;42.60;;;;;;5035708;28;20025;-57
2021/06/02 10:15:42;;;;;;;3.22;1.40;;;22.80;42.30;;;;;;5041055;28;20033;-57
2021/06/02 10:18:28;;;;;;;2.88;1.13;;;22.90;42.30;;;;;;5033731;28;20025;-57
2021/06/02 10:21:08;;;;;;;3.08;1.33;;;22.90;42.30;;;;;;5048829;28;20043;-57
2021/06/02 10:23:39;;;;;;;3.15;1.20;;;22.90;42.30;;;;;;5032367;28;20029;-57
2021/06/02 10:26:06;;;;;;;2.75;1.13;;;22.90;42.20;;;;;;5035151;28;20493;-57
2021/06/02 10:28:32;;;;;;;2.88;1.20;;;23.00;42.30;;;;;;5034195;28;20037;-57
2021/06/02 10:30:59;;;;;;;4.30;1.50;;;23.00;42.20;;;;;;5035729;28;20491;-57
2021/06/02 10:33:26;;;;;;;1.30;1.00;;;23.00;42.20;;;;;;5033736;28;20120;-57
2021/06/02 10:35:53;;;;;;;1.13;1.00;;;23.00;42.30;;;;;;5034256;28;20028;-57
2021/06/02 10:38:19;;;;;;;2.13;1.05;;;23.00;42.20;;;;;;5035214;28;20031;-57
2021/06/02 10:40:46;;;;;;;1.55;0.80;;;23.00;42.30;;;;;;5035689;28;20035;-58
2021/06/02 10:43:16;;;;;;;1.85;1.30;;;23.00;42.40;;;;;;5033863;28;21356;-57
2021/06/02 10:45:58;;;;;;;4.38;1.30;;;23.00;42.30;;;;;;5033543;28;20045;-57
2021/06/02 10:49:03;;;;;;;1.70;1.10;;;23.00;42.50;;;;;;5034826;28;20486;-58
2021/06/02 10:51:31;;;;;;;3.63;1.85;;;23.00;42.30;;;;;;5012801;28;20863;-58
2021/06/02 10:54:07;;;;;;;2.85;1.38;;;23.10;42.40;;;;;;5027549;28;20044;-57
2021/06/02 10:56:34;;;;;;;2.30;0.95;;;23.10;42.40;;;;;;5035325;28;20088;-57
2021/06/02 10:59:01;;;;;;;3.65;1.13;;;23.10;42.40;;;;;;5032383;28;20017;-57
2021/06/02 11:01:30;;;;;;;2.15;1.10;;;23.10;42.40;;;;;;5031662;28;20029;-57
2021/06/02 11:04:11;;;;;;;1.77;1.20;;;23.10;42.40;;;;;;5034332;28;20091;-57
2021/06/02 11:06:38;;;;;;;4.63;0.90;;;23.10;42.40;;;;;;5033525;28;20201;-57
2021/06/02 11:09:05;;;;;;;2.53;0.90;;;23.10;42.40;;;;;;5034285;28;20434;-57
2021/06/02 11:11:32;;;;;;;1.23;1.00;;;23.10;42.40;;;;;;5031584;28;20132;-57
2021/06/02 11:14:13;;;;;;;1.75;0.90;;;23.10;42.40;;;;;;5034411;28;20402;-57
2021/06/02 11:16:49;;;;;;;2.15;0.80;;;23.10;42.40;;;;;;5032749;28;20029;-58
2021/06/02 11:19:26;;;;;;;1.80;0.90;;;23.10;42.40;;;;;;5034179;28;20491;-58
2021/06/02 11:21:52;;;;;;;2.72;0.85;;;23.10;42.40;;;;;;5034653;28;20094;-58
2021/06/02 11:24:40;;;;;;;1.55;1.15;;;23.10;42.40;;;;;;5034562;28;20427;-58
2021/06/02 11:29:58;;;;;;;1.73;1.17;;;23.10;42.10;;;;;;5032132;28;20033;-57
2021/06/02 11:32:28;;;;;;;1.38;1.25;;;23.10;42.00;;;;;;5048712;28;20108;-58
2021/06/02 11:34:56;;;;;;;2.97;1.10;;;23.10;41.90;;;;;;5032193;28;20036;-58
2021/06/02 11:37:27;;;;;;;1.67;1.05;;;23.10;41.90;;;;;;5034627;28;20056;-57
2021/06/02 11:39:54;;;;;;;2.67;1.40;;;23.10;41.80;;;;;;5034785;28;20539;-57
2021/06/02 11:42:33;;;;;;;1.95;1.25;;;23.10;41.70;;;;;;5033442;28;20021;-57
2021/06/02 11:45:05;;;;;;;3.72;1.30;;;23.10;41.70;;;;;;5032966;28;20128;-57
2021/06/02 11:47:31;;;;;;;1.10;1.10;;;23.10;41.80;;;;;;5034080;28;20033;-57
2021/06/02 11:50:14;;;;;;;2.92;1.17;;;23.10;41.80;;;;;;5034649;28;20123;-57
2021/06/02 11:52:41;;;;;;;1.20;0.95;;;23.10;41.70;;;;;;5033141;28;20026;-57
2021/06/02 11:55:10;;;;;;;1.65;0.98;;;23.10;41.60;;;;;;5034101;28;20029;-57
2021/06/02 11:57:40;;;;;;;0.95;0.95;;;23.10;41.60;;;;;;5033922;28;20081;-58
2021/06/02 12:00:08;;;;;;;1.33;0.98;;;23.10;41.60;;;;;;5035139;28;20022;-58
2021/06/02 12:02:34;;;;;;;1.00;1.00;;;23.10;41.60;;;;;;5032398;28;20030;-59
2021/06/02 12:05:22;;;;;;;1.08;1.08;;;23.10;41.50;;;;;;5032962;28;20025;-57
2021/06/02 12:07:52;;;;;;;0.80;0.80;;;23.10;41.40;;;;;;5032900;28;20043;-58
2021/06/02 12:10:19;;;;;;;1.52;0.90;;;23.10;41.40;;;;;;5033266;28;20556;-58
2021/06/02 12:12:47;;;;;;;1.27;0.95;;;23.10;41.30;;;;;;5033510;28;20915;-58
2021/06/02 12:15:14;;;;;;;3.33;1.10;;;23.10;41.30;;;;;;5031037;28;20025;-58
2021/06/02 12:17:41;;;;;;;1.02;0.90;;;23.10;41.30;;;;;;5037802;28;20569;-58
2021/06/02 12:20:28;;;;;;;1.40;0.90;;;23.10;41.20;;;;;;5038005;28;20028;-58
2021/06/02 12:22:55;;;;;;;2.03;1.00;;;23.10;41.30;;;;;;5034493;28;20196;-58
2021/06/02 12:25:25;;;;;;;1.52;0.73;;;23.10;41.20;;;;;;5037040;28;20037;-58
2021/06/02 12:27:56;;;;;;;1.52;0.80;;;23.20;41.30;;;;;;5037271;28;20487;-58
2021/06/02 12:30:36;;;;;;;3.13;1.25;;;23.20;41.20;;;;;;5036643;28;20033;-58
2021/06/02 12:33:04;;;;;;;3.63;1.25;;;23.20;41.80;;;;;;5036042;28;20024;-57
2021/06/02 12:35:34;;;;;;;1.33;1.02;;;23.20;41.10;;;;;;5035688;28;20029;-57
2021/06/02 12:38:21;;;;;;;1.15;1.10;;;23.20;41.00;;;;;;5035302;28;20060;-58
2021/06/02 12:40:56;;;;;;;1.42;1.30;;;23.20;41.00;;;;;;5037131;28;20037;-57
2021/06/02 12:43:30;;;;;;;0.80;0.80;;;23.20;41.00;;;;;;5036230;28;20024;-57
2021/06/02 12:46:14;;;;;;;0.82;0.82;;;23.20;40.80;;;;;;5035632;28;20022;-57
2021/06/02 12:48:41;;;;;;;0.80;0.80;;;23.20;40.80;;;;;;5037017;28;20029;-57
2021/06/02 12:51:17;;;;;;;2.65;0.95;;;23.20;40.70;;;;;;5036885;28;20117;-57
2021/06/02 12:53:46;;;;;;;0.90;0.80;;;23.20;40.80;;;;;;5034911;28;20496;-58
2021/06/02 12:56:13;;;;;;;1.45;0.82;;;23.30;40.80;;;;;;5033546;28;20033;-59
2021/06/02 12:58:40;;;;;;;0.93;0.85;;;23.30;40.80;;;;;;5033182;28;20590;-58
2021/06/02 13:01:12;;;;;;;1.02;0.98;;;23.30;40.80;;;;;;5034321;28;20083;-58
2021/06/02 13:04:05;;;;;;;1.80;1.00;;;23.30;40.70;;;;;;5041286;28;20586;-57
2021/06/02 13:06:32;;;;;;;0.88;0.85;;;23.30;40.60;;;;;;5034552;28;20041;-58
2021/06/02 13:09:06;;;;;;;1.75;1.00;;;23.30;40.70;;;;;;5036442;28;20570;-59
2021/06/02 13:11:33;;;;;;;2.78;0.95;;;23.30;40.70;;;;;;5036115;28;20036;-60
2021/06/02 13:14:01;;;;;;;2.38;1.02;;;23.40;40.80;;;;;;5032784;28;20111;-58
2021/06/02 13:16:27;;;;;;;0.85;0.70;;;23.40;40.70;;;;;;5033706;28;20068;-58
2021/06/02 13:19:02;;;;;;;1.00;1.00;;;23.30;40.60;;;;;;5036828;28;20024;-59
2021/06/02 13:21:31;;;;;;;1.67;1.00;;;23.40;40.60;;;;;;5051912;28;20040;-58
2021/06/02 13:24:19;;;;;;;1.23;0.90;;;23.40;40.80;;;;;;5033485;28;20434;-59
2021/06/02 13:26:58;;;;;;;2.85;0.90;;;23.40;40.70;;;;;;5036621;28;20339;-60
2021/06/02 13:29:25;;;;;;;2.17;1.05;;;23.40;40.70;;;;;;5036168;28;20025;-59
2021/06/02 13:31:53;;;;;;;1.90;1.10;;;23.40;40.60;;;;;;5037176;28;20032;-58
2021/06/02 13:34:36;;;;;;;3.08;1.33;;;23.40;40.60;;;;;;5037072;28;20056;-58